sensor_id;sensor_type;location;lat;lon;timestamp;temperature;humidity
62904;DHT22;49000;50.698;13.322;2023-06-14T00:00:38;9.50;99.90
62904;DHT22;49000;50.698;13.322;2023-06-14T00:03:06;9.50;99.90
62904;DHT22;49000;50.698;13.322;2023-06-14T00:05:33;9.50;99.90
62904;DHT22;49000;50.698;13.322;2023-06-14T00:08:04;9.40;99.90
62904;DHT22;49000;50.698;13.322;2023-06-14T00:10:32;9.40;99.90
62904;DHT22;49000;50.698;13.322;2023-06-14T00:13:01;9.30;99.90
62904;DHT22;49000;50.698;13.322;2023-06-14T00:15:26;9.30;99.90
62904;DHT22;49000;50.698;13.322;2023-06-14T00:17:51;9.30;99.90
62904;DHT22;49000;50.698;13.322;2023-06-14T00:20:17;9.20;99.90
62904;DHT22;49000;50.698;13.322;2023-06-14T00:22:43;9.10;99.90
62904;DHT22;49000;50.698;13.322;2023-06-14T00:25:08;9.00;99.90
62904;DHT22;49000;50.698;13.322;2023-06-14T00:27:34;9.00;99.90
62904;DHT22;49000;50.698;13.322;2023-06-14T00:29:59;9.00;99.90
62904;DHT22;49000;50.698;13.322;2023-06-14T00:32:25;9.00;99.90
62904;DHT22;49000;50.698;13.322;2023-06-14T00:34:51;8.90;99.90
62904;DHT22;49000;50.698;13.322;2023-06-14T00:37:17;8.90;99.90
62904;DHT22;49000;50.698;13.322;2023-06-14T00:39:42;8.90;99.90
62904;DHT22;49000;50.698;13.322;2023-06-14T00:42:08;8.90;99.90
62904;DHT22;49000;50.698;13.322;2023-06-14T00:44:33;8.90;99.90
62904;DHT22;49000;50.698;13.322;2023-06-14T00:46:58;8.90;99.90
62904;DHT22;49000;50.698;13.322;2023-06-14T00:49:24;8.80;99.90
62904;DHT22;49000;50.698;13.322;2023-06-14T00:51:50;8.80;99.90
62904;DHT22;49000;50.698;13.322;2023-06-14T00:54:16;8.70;99.90
62904;DHT22;49000;50.698;13.322;2023-06-14T00:56:43;8.80;99.90
62904;DHT22;49000;50.698;13.322;2023-06-14T00:59:09;8.70;99.90
62904;DHT22;49000;50.698;13.322;2023-06-14T01:01:36;8.70;99.90
62904;DHT22;49000;50.698;13.322;2023-06-14T01:04:02;8.60;99.90
62904;DHT22;49000;50.698;13.322;2023-06-14T01:06:42;8.50;1.00
62904;DHT22;49000;50.698;13.322;2023-06-14T01:09:32;8.50;1.00
62904;DHT22;49000;50.698;13.322;2023-06-14T01:14:48;8.40;71.80
62904;DHT22;49000;50.698;13.322;2023-06-14T01:17:14;8.40;62.90
62904;DHT22;49000;50.698;13.322;2023-06-14T01:19:45;8.40;50.90
62904;DHT22;49000;50.698;13.322;2023-06-14T01:22:11;8.40;48.30
62904;DHT22;49000;50.698;13.322;2023-06-14T01:24:37;8.40;35.90
62904;DHT22;49000;50.698;13.322;2023-06-14T01:27:04;8.30;33.30
62904;DHT22;49000;50.698;13.322;2023-06-14T01:29:31;8.30;29.20
62904;DHT22;49000;50.698;13.322;2023-06-14T01:32:01;8.20;28.20
62904;DHT22;49000;50.698;13.322;2023-06-14T01:34:27;8.20;27.40
62904;DHT22;49000;50.698;13.322;2023-06-14T01:36:53;8.10;21.50
62904;DHT22;49000;50.698;13.322;2023-06-14T01:39:22;8.10;17.60
62904;DHT22;49000;50.698;13.322;2023-06-14T01:41:49;8.00;16.10
62904;DHT22;49000;50.698;13.322;2023-06-14T01:44:16;7.90;16.40
62904;DHT22;49000;50.698;13.322;2023-06-14T01:46:42;7.90;14.20
62904;DHT22;49000;50.698;13.322;2023-06-14T01:49:08;7.80;8.90
62904;DHT22;49000;50.698;13.322;2023-06-14T01:51:33;7.70;9.70
62904;DHT22;49000;50.698;13.322;2023-06-14T01:53:59;7.70;7.60
62904;DHT22;49000;50.698;13.322;2023-06-14T01:56:25;7.60;4.20
62904;DHT22;49000;50.698;13.322;2023-06-14T01:58:51;7.60;3.50
62904;DHT22;49000;50.698;13.322;2023-06-14T02:01:17;7.60;3.50
62904;DHT22;49000;50.698;13.322;2023-06-14T02:03:44;7.50;1.00
62904;DHT22;49000;50.698;13.322;2023-06-14T02:06:10;7.50;2.10
62904;DHT22;49000;50.698;13.322;2023-06-14T02:08:35;7.30;1.80
62904;DHT22;49000;50.698;13.322;2023-06-14T02:11:01;7.40;1.00
62904;DHT22;49000;50.698;13.322;2023-06-14T02:13:26;7.30;1.00
62904;DHT22;49000;50.698;13.322;2023-06-14T02:15:52;7.30;1.00
62904;DHT22;49000;50.698;13.322;2023-06-14T02:18:20;7.30;1.00
62904;DHT22;49000;50.698;13.322;2023-06-14T02:20:45;7.20;1.00
62904;DHT22;49000;50.698;13.322;2023-06-14T02:23:11;7.20;1.00
62904;DHT22;49000;50.698;13.322;2023-06-14T02:25:36;7.20;1.00
62904;DHT22;49000;50.698;13.322;2023-06-14T02:28:02;7.10;1.00
62904;DHT22;49000;50.698;13.322;2023-06-14T02:30:28;7.00;1.00
62904;DHT22;49000;50.698;13.322;2023-06-14T02:32:53;7.00;1.00
62904;DHT22;49000;50.698;13.322;2023-06-14T02:35:19;7.00;1.00
62904;DHT22;49000;50.698;13.322;2023-06-14T02:37:45;6.90;1.00
62904;DHT22;49000;50.698;13.322;2023-06-14T02:40:11;6.90;1.00
62904;DHT22;49000;50.698;13.322;2023-06-14T02:42:37;6.80;1.00
62904;DHT22;49000;50.698;13.322;2023-06-14T02:45:02;6.80;1.00
62904;DHT22;49000;50.698;13.322;2023-06-14T02:47:29;6.80;1.00
62904;DHT22;49000;50.698;13.322;2023-06-14T02:49:55;6.70;1.00
62904;DHT22;49000;50.698;13.322;2023-06-14T02:52:20;6.40;1.00
62904;DHT22;49000;50.698;13.322;2023-06-14T02:54:47;6.70;1.00
62904;DHT22;49000;50.698;13.322;2023-06-14T02:57:12;6.70;1.00
62904;DHT22;49000;50.698;13.322;2023-06-14T02:59:38;6.60;1.00
62904;DHT22;49000;50.698;13.322;2023-06-14T03:02:03;6.60;1.00
62904;DHT22;49000;50.698;13.322;2023-06-14T03:04:29;6.30;1.00
62904;DHT22;49000;50.698;13.322;2023-06-14T03:07:00;6.60;1.00
62904;DHT22;49000;50.698;13.322;2023-06-14T03:09:28;6.60;1.00
62904;DHT22;49000;50.698;13.322;2023-06-14T03:11:54;6.60;1.00
62904;DHT22;49000;50.698;13.322;2023-06-14T03:14:19;6.50;1.00
62904;DHT22;49000;50.698;13.322;2023-06-14T03:16:46;6.50;1.00
62904;DHT22;49000;50.698;13.322;2023-06-14T03:19:12;6.50;1.00
62904;DHT22;49000;50.698;13.322;2023-06-14T03:21:37;6.50;1.00
62904;DHT22;49000;50.698;13.322;2023-06-14T03:24:04;6.50;1.00
62904;DHT22;49000;50.698;13.322;2023-06-14T03:26:29;6.50;1.00
62904;DHT22;49000;50.698;13.322;2023-06-14T03:28:56;6.10;1.00
62904;DHT22;49000;50.698;13.322;2023-06-14T03:31:22;6.50;1.00
62904;DHT22;49000;50.698;13.322;2023-06-14T03:33:49;6.50;1.00
62904;DHT22;49000;50.698;13.322;2023-06-14T03:36:14;6.50;1.00
62904;DHT22;49000;50.698;13.322;2023-06-14T03:38:40;6.40;1.00
62904;DHT22;49000;50.698;13.322;2023-06-14T03:41:05;6.40;1.00
62904;DHT22;49000;50.698;13.322;2023-06-14T03:43:31;6.40;1.00
62904;DHT22;49000;50.698;13.322;2023-06-14T03:45:56;6.50;1.00
62904;DHT22;49000;50.698;13.322;2023-06-14T03:48:22;6.10;1.00
62904;DHT22;49000;50.698;13.322;2023-06-14T03:50:47;6.50;1.90
62904;DHT22;49000;50.698;13.322;2023-06-14T03:53:13;6.50;4.40
62904;DHT22;49000;50.698;13.322;2023-06-14T03:55:38;6.50;4.30
62904;DHT22;49000;50.698;13.322;2023-06-14T03:58:04;6.50;6.60
62904;DHT22;49000;50.698;13.322;2023-06-14T04:00:30;6.50;7.40
62904;DHT22;49000;50.698;13.322;2023-06-14T04:02:55;6.60;8.70
62904;DHT22;49000;50.698;13.322;2023-06-14T04:05:21;6.80;11.50
62904;DHT22;49000;50.698;13.322;2023-06-14T04:07:47;6.60;12.20
62904;DHT22;49000;50.698;13.322;2023-06-14T04:10:14;6.60;19.40
62904;DHT22;49000;50.698;13.322;2023-06-14T04:12:40;6.50;24.20
62904;DHT22;49000;50.698;13.322;2023-06-14T04:15:07;6.70;29.20
62904;DHT22;49000;50.698;13.322;2023-06-14T04:17:33;6.80;32.10
62904;DHT22;49000;50.698;13.322;2023-06-14T04:19:59;6.80;32.10
62904;DHT22;49000;50.698;13.322;2023-06-14T04:22:28;6.80;32.10
62904;DHT22;49000;50.698;13.322;2023-06-14T04:24:54;6.90;32.20
62904;DHT22;49000;50.698;13.322;2023-06-14T04:27:22;6.90;35.70
62904;DHT22;49000;50.698;13.322;2023-06-14T04:29:51;7.00;43.50
62904;DHT22;49000;50.698;13.322;2023-06-14T04:32:28;7.00;45.30
62904;DHT22;49000;50.698;13.322;2023-06-14T04:34:55;7.10;48.10
62904;DHT22;49000;50.698;13.322;2023-06-14T04:37:21;7.10;47.60
62904;DHT22;49000;50.698;13.322;2023-06-14T04:39:48;7.20;52.70
62904;DHT22;49000;50.698;13.322;2023-06-14T04:42:13;7.20;59.40
62904;DHT22;49000;50.698;13.322;2023-06-14T04:44:41;7.30;61.80
62904;DHT22;49000;50.698;13.322;2023-06-14T04:47:06;7.30;74.60
62904;DHT22;49000;50.698;13.322;2023-06-14T04:49:32;7.40;76.70
62904;DHT22;49000;50.698;13.322;2023-06-14T04:51:59;7.50;79.60
62904;DHT22;49000;50.698;13.322;2023-06-14T04:54:26;7.50;88.20
62904;DHT22;49000;50.698;13.322;2023-06-14T04:56:52;7.60;91.40
62904;DHT22;49000;50.698;13.322;2023-06-14T04:59:20;7.70;97.60
62904;DHT22;49000;50.698;13.322;2023-06-14T05:01:48;7.90;99.90
62904;DHT22;49000;50.698;13.322;2023-06-14T05:04:15;8.00;99.90
62904;DHT22;49000;50.698;13.322;2023-06-14T05:06:42;8.10;99.90
62904;DHT22;49000;50.698;13.322;2023-06-14T05:09:10;8.30;99.90
62904;DHT22;49000;50.698;13.322;2023-06-14T05:11:36;8.50;99.90
62904;DHT22;49000;50.698;13.322;2023-06-14T05:14:01;8.70;99.90
62904;DHT22;49000;50.698;13.322;2023-06-14T05:16:26;8.80;99.90
62904;DHT22;49000;50.698;13.322;2023-06-14T05:18:52;9.10;99.90
62904;DHT22;49000;50.698;13.322;2023-06-14T05:21:18;9.30;99.90
62904;DHT22;49000;50.698;13.322;2023-06-14T05:23:47;9.50;99.90
62904;DHT22;49000;50.698;13.322;2023-06-14T05:26:12;9.70;99.90
62904;DHT22;49000;50.698;13.322;2023-06-14T05:28:38;9.90;99.90
62904;DHT22;49000;50.698;13.322;2023-06-14T05:31:03;10.10;99.90
62904;DHT22;49000;50.698;13.322;2023-06-14T05:33:28;10.40;99.90
62904;DHT22;49000;50.698;13.322;2023-06-14T05:35:54;10.60;99.90
62904;DHT22;49000;50.698;13.322;2023-06-14T05:38:20;10.70;99.90
62904;DHT22;49000;50.698;13.322;2023-06-14T05:40:45;11.00;99.90
62904;DHT22;49000;50.698;13.322;2023-06-14T05:43:11;11.20;99.90
62904;DHT22;49000;50.698;13.322;2023-06-14T05:45:36;11.40;99.90
62904;DHT22;49000;50.698;13.322;2023-06-14T05:48:02;11.60;99.90
62904;DHT22;49000;50.698;13.322;2023-06-14T05:50:28;11.80;99.90
62904;DHT22;49000;50.698;13.322;2023-06-14T05:52:53;12.00;99.90
62904;DHT22;49000;50.698;13.322;2023-06-14T05:55:19;12.30;99.90
62904;DHT22;49000;50.698;13.322;2023-06-14T05:57:45;12.50;99.90
62904;DHT22;49000;50.698;13.322;2023-06-14T06:00:11;12.70;99.90
62904;DHT22;49000;50.698;13.322;2023-06-14T06:02:42;12.90;92.20
62904;DHT22;49000;50.698;13.322;2023-06-14T06:05:13;13.10;93.00
62904;DHT22;49000;50.698;13.322;2023-06-14T06:07:39;13.30;82.40
62904;DHT22;49000;50.698;13.322;2023-06-14T06:10:06;13.60;75.70
62904;DHT22;49000;50.698;13.322;2023-06-14T06:12:32;13.80;43.60
62904;DHT22;49000;50.698;13.322;2023-06-14T06:14:58;14.00;43.90
62904;DHT22;49000;50.698;13.322;2023-06-14T06:17:25;14.20;29.50
62904;DHT22;49000;50.698;13.322;2023-06-14T06:19:51;14.40;28.30
62904;DHT22;49000;50.698;13.322;2023-06-14T06:22:16;14.60;37.80
62904;DHT22;49000;50.698;13.322;2023-06-14T06:24:42;14.80;19.10
62904;DHT22;49000;50.698;13.322;2023-06-14T06:27:08;15.10;13.70
62904;DHT22;49000;50.698;13.322;2023-06-14T06:29:34;15.30;11.80
62904;DHT22;49000;50.698;13.322;2023-06-14T06:32:00;15.60;6.70
62904;DHT22;49000;50.698;13.322;2023-06-14T06:34:26;15.80;1.50
62904;DHT22;49000;50.698;13.322;2023-06-14T06:36:51;15.90;1.00
62904;DHT22;49000;50.698;13.322;2023-06-14T06:39:17;16.00;1.00
62904;DHT22;49000;50.698;13.322;2023-06-14T06:41:42;16.10;1.00
62904;DHT22;49000;50.698;13.322;2023-06-14T06:44:08;16.10;1.00
62904;DHT22;49000;50.698;13.322;2023-06-14T06:46:36;16.10;1.00
62904;DHT22;49000;50.698;13.322;2023-06-14T06:49:08;16.20;1.00
62904;DHT22;49000;50.698;13.322;2023-06-14T06:51:35;16.40;1.00
62904;DHT22;49000;50.698;13.322;2023-06-14T06:54:02;16.50;1.00
62904;DHT22;49000;50.698;13.322;2023-06-14T06:56:27;16.60;1.00
62904;DHT22;49000;50.698;13.322;2023-06-14T06:58:53;16.80;1.00
62904;DHT22;49000;50.698;13.322;2023-06-14T07:01:19;17.00;1.00
62904;DHT22;49000;50.698;13.322;2023-06-14T07:03:45;17.10;1.00
62904;DHT22;49000;50.698;13.322;2023-06-14T07:06:11;17.30;1.00
62904;DHT22;49000;50.698;13.322;2023-06-14T07:08:37;17.30;1.00
62904;DHT22;49000;50.698;13.322;2023-06-14T07:11:05;17.60;1.00
62904;DHT22;49000;50.698;13.322;2023-06-14T07:13:31;17.90;1.00
62904;DHT22;49000;50.698;13.322;2023-06-14T07:16:00;17.90;1.00
62904;DHT22;49000;50.698;13.322;2023-06-14T07:18:26;17.70;1.00
62904;DHT22;49000;50.698;13.322;2023-06-14T07:20:52;17.80;1.00
62904;DHT22;49000;50.698;13.322;2023-06-14T07:23:19;18.10;1.00
62904;DHT22;49000;50.698;13.322;2023-06-14T07:25:44;18.40;1.00
62904;DHT22;49000;50.698;13.322;2023-06-14T07:28:10;18.90;1.00
62904;DHT22;49000;50.698;13.322;2023-06-14T07:30:35;18.90;1.00
62904;DHT22;49000;50.698;13.322;2023-06-14T07:33:01;19.00;1.00
62904;DHT22;49000;50.698;13.322;2023-06-14T07:35:26;19.20;1.00
62904;DHT22;49000;50.698;13.322;2023-06-14T07:37:52;19.40;1.00
62904;DHT22;49000;50.698;13.322;2023-06-14T07:40:18;19.50;1.00
62904;DHT22;49000;50.698;13.322;2023-06-14T07:42:43;19.60;1.00
62904;DHT22;49000;50.698;13.322;2023-06-14T07:45:09;19.60;1.00
62904;DHT22;49000;50.698;13.322;2023-06-14T07:47:34;19.40;1.00
62904;DHT22;49000;50.698;13.322;2023-06-14T07:50:00;19.40;1.00
62904;DHT22;49000;50.698;13.322;2023-06-14T07:52:25;19.80;1.00
62904;DHT22;49000;50.698;13.322;2023-06-14T07:54:51;20.10;1.00
62904;DHT22;49000;50.698;13.322;2023-06-14T07:57:16;20.30;99.90
62904;DHT22;49000;50.698;13.322;2023-06-14T07:59:42;20.70;99.90
62904;DHT22;49000;50.698;13.322;2023-06-14T08:02:07;20.70;99.90
62904;DHT22;49000;50.698;13.322;2023-06-14T08:04:33;20.50;99.90
62904;DHT22;49000;50.698;13.322;2023-06-14T08:06:59;20.20;99.90
62904;DHT22;49000;50.698;13.322;2023-06-14T08:09:26;20.20;99.90
62904;DHT22;49000;50.698;13.322;2023-06-14T08:11:53;20.40;99.90
62904;DHT22;49000;50.698;13.322;2023-06-14T08:14:18;20.50;99.90
62904;DHT22;49000;50.698;13.322;2023-06-14T08:16:44;20.70;99.90
62904;DHT22;49000;50.698;13.322;2023-06-14T08:19:09;20.90;99.90
62904;DHT22;49000;50.698;13.322;2023-06-14T08:21:35;21.10;99.90
62904;DHT22;49000;50.698;13.322;2023-06-14T08:24:01;21.10;99.90
62904;DHT22;49000;50.698;13.322;2023-06-14T08:26:27;21.30;99.90
62904;DHT22;49000;50.698;13.322;2023-06-14T08:28:54;21.40;99.90
62904;DHT22;49000;50.698;13.322;2023-06-14T08:31:20;21.60;99.90
62904;DHT22;49000;50.698;13.322;2023-06-14T08:33:46;21.90;99.90
62904;DHT22;49000;50.698;13.322;2023-06-14T08:36:11;21.60;99.90
62904;DHT22;49000;50.698;13.322;2023-06-14T08:38:38;21.90;99.90
62904;DHT22;49000;50.698;13.322;2023-06-14T08:41:04;21.80;99.90
62904;DHT22;49000;50.698;13.322;2023-06-14T08:43:31;22.10;99.90
62904;DHT22;49000;50.698;13.322;2023-06-14T08:46:03;22.20;99.90
62904;DHT22;49000;50.698;13.322;2023-06-14T08:48:29;22.00;99.90
62904;DHT22;49000;50.698;13.322;2023-06-14T08:50:59;22.20;99.90
62904;DHT22;49000;50.698;13.322;2023-06-14T08:53:33;22.70;99.90
62904;DHT22;49000;50.698;13.322;2023-06-14T08:56:01;23.10;99.90
62904;DHT22;49000;50.698;13.322;2023-06-14T08:58:31;22.80;99.90
62904;DHT22;49000;50.698;13.322;2023-06-14T09:00:57;22.80;99.90
62904;DHT22;49000;50.698;13.322;2023-06-14T09:03:24;22.70;99.90
62904;DHT22;49000;50.698;13.322;2023-06-14T09:05:56;22.80;99.90
62904;DHT22;49000;50.698;13.322;2023-06-14T09:08:22;22.40;99.90
62904;DHT22;49000;50.698;13.322;2023-06-14T09:10:48;22.40;99.90
62904;DHT22;49000;50.698;13.322;2023-06-14T09:13:14;22.10;99.90
62904;DHT22;49000;50.698;13.322;2023-06-14T09:15:39;22.00;99.90
62904;DHT22;49000;50.698;13.322;2023-06-14T09:18:05;22.00;99.90
62904;DHT22;49000;50.698;13.322;2023-06-14T09:20:32;22.30;99.90
62904;DHT22;49000;50.698;13.322;2023-06-14T09:22:58;22.30;99.90
62904;DHT22;49000;50.698;13.322;2023-06-14T09:25:23;22.70;99.90
62904;DHT22;49000;50.698;13.322;2023-06-14T09:27:51;23.00;99.90
62904;DHT22;49000;50.698;13.322;2023-06-14T09:30:19;23.60;99.90
62904;DHT22;49000;50.698;13.322;2023-06-14T09:32:45;24.10;99.90
62904;DHT22;49000;50.698;13.322;2023-06-14T09:35:11;24.50;99.90
62904;DHT22;49000;50.698;13.322;2023-06-14T09:37:37;24.20;99.90
62904;DHT22;49000;50.698;13.322;2023-06-14T09:40:06;24.10;99.90
62904;DHT22;49000;50.698;13.322;2023-06-14T09:42:32;24.40;99.90
62904;DHT22;49000;50.698;13.322;2023-06-14T09:45:02;24.80;99.90
62904;DHT22;49000;50.698;13.322;2023-06-14T09:47:29;25.30;99.90
62904;DHT22;49000;50.698;13.322;2023-06-14T09:49:55;25.30;99.90
62904;DHT22;49000;50.698;13.322;2023-06-14T09:52:21;24.80;99.90
62904;DHT22;49000;50.698;13.322;2023-06-14T09:54:48;24.50;99.90
62904;DHT22;49000;50.698;13.322;2023-06-14T09:57:21;24.90;99.90
62904;DHT22;49000;50.698;13.322;2023-06-14T09:59:48;25.10;99.90
62904;DHT22;49000;50.698;13.322;2023-06-14T10:02:28;25.40;99.90
62904;DHT22;49000;50.698;13.322;2023-06-14T10:05:08;24.60;99.90
62904;DHT22;49000;50.698;13.322;2023-06-14T10:10:07;24.70;99.90
62904;DHT22;49000;50.698;13.322;2023-06-14T10:12:33;24.80;99.90
62904;DHT22;49000;50.698;13.322;2023-06-14T10:14:59;24.50;99.90
62904;DHT22;49000;50.698;13.322;2023-06-14T10:17:33;24.90;99.90
62904;DHT22;49000;50.698;13.322;2023-06-14T10:22:50;24.80;99.90
62904;DHT22;49000;50.698;13.322;2023-06-14T10:25:28;25.00;99.90
62904;DHT22;49000;50.698;13.322;2023-06-14T10:30:37;25.30;99.90
62904;DHT22;49000;50.698;13.322;2023-06-14T10:33:08;25.60;99.90
62904;DHT22;49000;50.698;13.322;2023-06-14T10:35:35;25.50;99.90
62904;DHT22;49000;50.698;13.322;2023-06-14T10:38:13;25.50;99.90
62904;DHT22;49000;50.698;13.322;2023-06-14T10:40:39;25.40;99.90
62904;DHT22;49000;50.698;13.322;2023-06-14T10:43:24;26.50;99.90
62904;DHT22;49000;50.698;13.322;2023-06-14T10:48:44;26.70;99.90
62904;DHT22;49000;50.698;13.322;2023-06-14T10:51:16;26.50;99.90
62904;DHT22;49000;50.698;13.322;2023-06-14T10:53:49;27.00;99.90
62904;DHT22;49000;50.698;13.322;2023-06-14T10:56:27;27.20;99.90
62904;DHT22;49000;50.698;13.322;2023-06-14T10:58:54;27.60;99.90
62904;DHT22;49000;50.698;13.322;2023-06-14T11:01:36;27.60;99.90
62904;DHT22;49000;50.698;13.322;2023-06-14T11:04:10;26.50;99.90
62904;DHT22;49000;50.698;13.322;2023-06-14T11:06:49;25.90;99.90
62904;DHT22;49000;50.698;13.322;2023-06-14T11:12:01;26.40;99.90
62904;DHT22;49000;50.698;13.322;2023-06-14T11:14:30;26.30;99.90
62904;DHT22;49000;50.698;13.322;2023-06-14T11:16:56;25.90;99.90
62904;DHT22;49000;50.698;13.322;2023-06-14T11:19:22;25.40;99.90
62904;DHT22;49000;50.698;13.322;2023-06-14T11:21:48;25.50;99.90
62904;DHT22;49000;50.698;13.322;2023-06-14T11:24:13;25.20;99.90
62904;DHT22;49000;50.698;13.322;2023-06-14T11:26:40;24.80;99.90
62904;DHT22;49000;50.698;13.322;2023-06-14T11:29:05;24.90;99.90
62904;DHT22;49000;50.698;13.322;2023-06-14T11:31:31;25.20;99.90
62904;DHT22;49000;50.698;13.322;2023-06-14T11:33:58;25.30;99.90
62904;DHT22;49000;50.698;13.322;2023-06-14T11:36:26;25.50;99.90
62904;DHT22;49000;50.698;13.322;2023-06-14T11:38:59;26.50;99.90
62904;DHT22;49000;50.698;13.322;2023-06-14T11:41:25;27.10;99.90
62904;DHT22;49000;50.698;13.322;2023-06-14T11:43:53;26.80;99.90
62904;DHT22;49000;50.698;13.322;2023-06-14T11:46:19;27.10;99.90
62904;DHT22;49000;50.698;13.322;2023-06-14T11:48:49;27.30;99.90
62904;DHT22;49000;50.698;13.322;2023-06-14T11:51:14;26.30;99.90
62904;DHT22;49000;50.698;13.322;2023-06-14T11:53:40;25.80;99.90
62904;DHT22;49000;50.698;13.322;2023-06-14T11:56:07;25.00;99.90
62904;DHT22;49000;50.698;13.322;2023-06-14T11:58:33;25.00;99.90
62904;DHT22;49000;50.698;13.322;2023-06-14T12:00:58;24.60;99.90
62904;DHT22;49000;50.698;13.322;2023-06-14T12:03:25;25.20;99.90
62904;DHT22;49000;50.698;13.322;2023-06-14T12:06:01;25.60;99.90
62904;DHT22;49000;50.698;13.322;2023-06-14T12:08:35;25.80;99.90
62904;DHT22;49000;50.698;13.322;2023-06-14T12:11:04;25.90;99.90
62904;DHT22;49000;50.698;13.322;2023-06-14T12:13:30;25.50;99.90
62904;DHT22;49000;50.698;13.322;2023-06-14T12:15:58;25.20;99.90
62904;DHT22;49000;50.698;13.322;2023-06-14T12:18:35;25.10;99.90
62904;DHT22;49000;50.698;13.322;2023-06-14T12:21:01;24.60;99.90
62904;DHT22;49000;50.698;13.322;2023-06-14T12:23:39;24.20;99.90
62904;DHT22;49000;50.698;13.322;2023-06-14T12:26:05;23.50;99.90
62904;DHT22;49000;50.698;13.322;2023-06-14T12:28:31;23.70;99.90
62904;DHT22;49000;50.698;13.322;2023-06-14T12:30:57;23.80;99.90
62904;DHT22;49000;50.698;13.322;2023-06-14T12:33:24;23.70;99.90
62904;DHT22;49000;50.698;13.322;2023-06-14T12:35:50;23.30;99.90
62904;DHT22;49000;50.698;13.322;2023-06-14T12:38:16;23.20;99.90
62904;DHT22;49000;50.698;13.322;2023-06-14T12:40:41;23.20;99.90
62904;DHT22;49000;50.698;13.322;2023-06-14T12:43:07;22.90;99.90
62904;DHT22;49000;50.698;13.322;2023-06-14T12:45:33;22.70;99.90
62904;DHT22;49000;50.698;13.322;2023-06-14T12:47:58;22.40;99.90
62904;DHT22;49000;50.698;13.322;2023-06-14T12:50:24;22.30;99.90
62904;DHT22;49000;50.698;13.322;2023-06-14T12:52:49;22.20;99.90
62904;DHT22;49000;50.698;13.322;2023-06-14T12:55:15;22.10;99.90
62904;DHT22;49000;50.698;13.322;2023-06-14T12:57:41;21.90;99.90
62904;DHT22;49000;50.698;13.322;2023-06-14T13:00:07;21.70;99.90
62904;DHT22;49000;50.698;13.322;2023-06-14T13:02:33;21.70;99.90
62904;DHT22;49000;50.698;13.322;2023-06-14T13:04:59;21.70;99.90
62904;DHT22;49000;50.698;13.322;2023-06-14T13:07:25;21.80;99.90
62904;DHT22;49000;50.698;13.322;2023-06-14T13:09:51;22.00;99.90
62904;DHT22;49000;50.698;13.322;2023-06-14T13:12:16;21.80;99.90
62904;DHT22;49000;50.698;13.322;2023-06-14T13:14:42;21.50;99.90
62904;DHT22;49000;50.698;13.322;2023-06-14T13:17:10;21.70;99.90
62904;DHT22;49000;50.698;13.322;2023-06-14T13:19:36;21.90;99.90
62904;DHT22;49000;50.698;13.322;2023-06-14T13:22:01;21.90;99.90
62904;DHT22;49000;50.698;13.322;2023-06-14T13:24:27;21.80;99.90
62904;DHT22;49000;50.698;13.322;2023-06-14T13:26:55;21.60;99.90
62904;DHT22;49000;50.698;13.322;2023-06-14T13:29:20;21.40;99.90
62904;DHT22;49000;50.698;13.322;2023-06-14T13:31:46;21.20;99.90
62904;DHT22;49000;50.698;13.322;2023-06-14T13:34:11;21.00;99.90
62904;DHT22;49000;50.698;13.322;2023-06-14T13:36:37;21.10;99.90
62904;DHT22;49000;50.698;13.322;2023-06-14T13:39:02;21.00;99.90
62904;DHT22;49000;50.698;13.322;2023-06-14T13:41:28;20.90;99.90
62904;DHT22;49000;50.698;13.322;2023-06-14T13:44:00;20.80;99.90
62904;DHT22;49000;50.698;13.322;2023-06-14T13:46:26;21.00;99.90
62904;DHT22;49000;50.698;13.322;2023-06-14T13:48:52;21.00;99.90
62904;DHT22;49000;50.698;13.322;2023-06-14T13:51:17;21.30;99.90
62904;DHT22;49000;50.698;13.322;2023-06-14T13:53:48;21.50;99.90
62904;DHT22;49000;50.698;13.322;2023-06-14T13:56:14;21.20;99.90
62904;DHT22;49000;50.698;13.322;2023-06-14T13:58:40;21.40;99.90
62904;DHT22;49000;50.698;13.322;2023-06-14T14:01:06;21.70;99.90
62904;DHT22;49000;50.698;13.322;2023-06-14T14:03:32;22.70;99.90
62904;DHT22;49000;50.698;13.322;2023-06-14T14:05:58;23.20;99.90
62904;DHT22;49000;50.698;13.322;2023-06-14T14:08:23;23.00;99.90
62904;DHT22;49000;50.698;13.322;2023-06-14T14:10:50;22.90;99.90
62904;DHT22;49000;50.698;13.322;2023-06-14T14:13:15;23.40;99.90
62904;DHT22;49000;50.698;13.322;2023-06-14T14:15:41;24.20;99.90
62904;DHT22;49000;50.698;13.322;2023-06-14T14:18:06;25.30;99.90
62904;DHT22;49000;50.698;13.322;2023-06-14T14:20:32;25.50;99.90
62904;DHT22;49000;50.698;13.322;2023-06-14T14:22:57;25.70;99.90
62904;DHT22;49000;50.698;13.322;2023-06-14T14:25:23;26.30;99.90
62904;DHT22;49000;50.698;13.322;2023-06-14T14:27:48;26.40;99.90
62904;DHT22;49000;50.698;13.322;2023-06-14T14:30:14;26.60;99.90
62904;DHT22;49000;50.698;13.322;2023-06-14T14:32:41;26.40;99.90
62904;DHT22;49000;50.698;13.322;2023-06-14T14:35:08;27.10;99.90
62904;DHT22;49000;50.698;13.322;2023-06-14T14:37:34;27.40;99.90
62904;DHT22;49000;50.698;13.322;2023-06-14T14:39:59;28.00;99.90
62904;DHT22;49000;50.698;13.322;2023-06-14T14:42:25;28.80;99.90
62904;DHT22;49000;50.698;13.322;2023-06-14T14:44:51;29.10;99.90
62904;DHT22;49000;50.698;13.322;2023-06-14T14:47:17;29.40;99.90
62904;DHT22;49000;50.698;13.322;2023-06-14T14:49:42;29.80;99.90
62904;DHT22;49000;50.698;13.322;2023-06-14T14:52:08;29.30;99.90
62904;DHT22;49000;50.698;13.322;2023-06-14T14:54:33;29.10;99.90
62904;DHT22;49000;50.698;13.322;2023-06-14T14:56:59;29.40;99.90
62904;DHT22;49000;50.698;13.322;2023-06-14T14:59:24;29.10;99.90
62904;DHT22;49000;50.698;13.322;2023-06-14T15:01:50;28.70;99.90
62904;DHT22;49000;50.698;13.322;2023-06-14T15:04:16;29.40;99.90
62904;DHT22;49000;50.698;13.322;2023-06-14T15:06:41;30.00;99.90
62904;DHT22;49000;50.698;13.322;2023-06-14T15:09:07;30.10;99.90
62904;DHT22;49000;50.698;13.322;2023-06-14T15:11:32;29.70;99.90
62904;DHT22;49000;50.698;13.322;2023-06-14T15:13:58;29.50;99.90
62904;DHT22;49000;50.698;13.322;2023-06-14T15:16:23;29.00;99.90
62904;DHT22;49000;50.698;13.322;2023-06-14T15:18:49;28.60;99.90
62904;DHT22;49000;50.698;13.322;2023-06-14T15:21:15;28.50;99.90
62904;DHT22;49000;50.698;13.322;2023-06-14T15:23:41;27.90;99.90
62904;DHT22;49000;50.698;13.322;2023-06-14T15:26:06;27.40;99.90
62904;DHT22;49000;50.698;13.322;2023-06-14T15:28:32;26.10;99.90
62904;DHT22;49000;50.698;13.322;2023-06-14T15:30:58;25.90;99.90
62904;DHT22;49000;50.698;13.322;2023-06-14T15:33:24;25.70;99.90
62904;DHT22;49000;50.698;13.322;2023-06-14T15:35:50;25.10;99.90
62904;DHT22;49000;50.698;13.322;2023-06-14T15:38:15;25.00;99.90